createdAt,value
2023-01-06T00:02:39.227Z,3.03
2023-01-06T00:05:24.733Z,2.78
2023-01-06T00:08:10.031Z,3.15
2023-01-06T00:10:58.541Z,3.65
2023-01-06T00:13:44.043Z,3.53
2023-01-06T00:16:30.744Z,3.40
2023-01-06T00:19:18.769Z,3.75
2023-01-06T00:22:19.399Z,3.25
2023-01-06T00:25:05.061Z,3.70
2023-01-06T00:27:50.396Z,4.90
2023-01-06T00:30:37.310Z,3.75
2023-01-06T00:33:26.092Z,3.85
2023-01-06T00:36:13.552Z,4.10
2023-01-06T00:38:58.892Z,3.70
2023-01-06T00:42:02.835Z,3.70
2023-01-06T00:44:48.161Z,3.97
2023-01-06T00:47:33.606Z,3.78
2023-01-06T00:50:19.181Z,3.70
2023-01-06T00:53:04.791Z,4.15
2023-01-06T00:55:50.022Z,3.33
2023-01-06T00:58:35.785Z,3.38
2023-01-06T01:01:21.464Z,3.22
2023-01-06T01:04:07.734Z,2.95
2023-01-06T01:06:54.004Z,4.50
2023-01-06T01:09:39.850Z,3.60
2023-01-06T01:12:25.493Z,4.00
2023-01-06T01:15:13.714Z,2.97
2023-01-06T01:17:59.206Z,3.85
2023-01-06T01:20:51.873Z,3.45
2023-01-06T01:23:36.941Z,3.50
2023-01-06T01:26:22.631Z,3.10
2023-01-06T01:29:10.241Z,3.35
2023-01-06T01:31:56.054Z,3.70
2023-01-06T01:34:41.531Z,2.65
2023-01-06T01:37:27.040Z,3.40
2023-01-06T01:40:12.833Z,3.33
2023-01-06T01:42:58.578Z,3.10
2023-01-06T01:45:50.371Z,3.15
2023-01-06T01:48:36.221Z,3.05
2023-01-06T01:51:28.708Z,3.40
2023-01-06T01:54:19.302Z,2.40
2023-01-06T01:57:09.969Z,3.13
2023-01-06T01:59:55.815Z,3.45
2023-01-06T02:02:42.538Z,2.70
2023-01-06T02:05:29.107Z,2.80
2023-01-06T02:08:26.429Z,2.78
2023-01-06T02:11:12.349Z,2.88
2023-01-06T02:14:11.679Z,3.15
2023-01-06T02:17:12.048Z,2.75
2023-01-06T02:20:14.645Z,3.45
2023-01-06T02:23:22.154Z,2.42
2023-01-06T02:26:26.694Z,2.47
2023-01-06T02:29:27.415Z,2.38
2023-01-06T02:32:30.280Z,2.22
2023-01-06T02:35:49.487Z,2.65
2023-01-06T02:38:58.998Z,2.47
2023-01-06T02:41:57.985Z,2.20
2023-01-06T02:45:01.841Z,3.15
2023-01-06T02:48:05.488Z,2.33
2023-01-06T02:51:25.049Z,2.22
2023-01-06T02:54:41.973Z,2.85
2023-01-06T02:57:40.556Z,2.20
2023-01-06T03:00:30.728Z,2.00
2023-01-06T03:03:21.039Z,2.38
2023-01-06T03:06:15.357Z,2.45
2023-01-06T03:09:05.314Z,2.05
2023-01-06T03:11:56.408Z,2.38
2023-01-06T03:14:48.550Z,1.83
2023-01-06T03:17:34.888Z,1.90
2023-01-06T03:20:24.549Z,2.53
2023-01-06T03:23:15.733Z,2.13
2023-01-06T03:26:01.323Z,1.70
2023-01-06T03:28:50.060Z,1.85
2023-01-06T03:32:06.081Z,2.15
2023-01-06T03:35:00.387Z,1.88
2023-01-06T03:38:20.970Z,1.93
2023-01-06T03:41:46.994Z,1.80
2023-01-06T03:44:42.133Z,1.63
2023-01-06T03:47:42.010Z,2.42
2023-01-06T03:50:35.397Z,1.85
2023-01-06T03:53:30.189Z,1.90
2023-01-06T03:56:45.651Z,2.50
2023-01-06T03:59:38.379Z,2.15
2023-01-06T04:02:24.972Z,1.83
2023-01-06T04:05:21.153Z,2.20
2023-01-06T04:08:07.689Z,1.52
2023-01-06T04:10:53.514Z,1.92
2023-01-06T04:13:41.412Z,2.00
2023-01-06T04:16:27.359Z,1.70
2023-01-06T04:19:12.742Z,2.17
2023-01-06T04:21:58.133Z,2.25
2023-01-06T04:24:46.740Z,1.88
2023-01-06T04:27:32.657Z,1.70
2023-01-06T04:30:18.643Z,2.33
2023-01-06T04:33:04.166Z,1.83
2023-01-06T04:35:49.369Z,1.80
2023-01-06T04:38:37.846Z,1.63
2023-01-06T04:41:23.251Z,2.20
2023-01-06T04:44:08.879Z,1.50
2023-01-06T04:46:56.969Z,1.90
2023-01-06T04:49:42.128Z,2.20
2023-01-06T04:52:33.316Z,1.50
2023-01-06T04:55:18.979Z,1.70
2023-01-06T04:58:04.689Z,1.73
2023-01-06T05:00:50.272Z,2.00
2023-01-06T05:03:41.153Z,1.85
2023-01-06T05:06:29.292Z,2.17
2023-01-06T05:09:15.002Z,2.95
2023-01-06T05:12:00.694Z,2.03
2023-01-06T05:14:48.110Z,2.50
2023-01-06T05:17:33.695Z,2.08
2023-01-06T05:20:20.420Z,2.40
2023-01-06T05:23:06.017Z,2.40
2023-01-06T05:25:52.762Z,2.40
2023-01-06T05:28:40.733Z,2.65
2023-01-06T05:31:26.390Z,2.45
2023-01-06T05:34:12.121Z,2.70
2023-01-06T05:36:58.154Z,2.85
2023-01-06T05:39:44.827Z,2.30
2023-01-06T05:42:30.235Z,2.85
2023-01-06T05:45:15.856Z,2.80
2023-01-06T05:48:02.674Z,2.20
2023-01-06T05:50:51.035Z,2.60
2023-01-06T05:53:39.075Z,2.92
2023-01-06T05:56:24.654Z,2.80
2023-01-06T05:59:10.256Z,2.72
2023-01-06T06:01:58.644Z,3.00
2023-01-06T06:04:46.343Z,2.65
2023-01-06T06:07:31.701Z,2.50
2023-01-06T06:10:19.785Z,2.33
2023-01-06T06:13:05.052Z,3.15
2023-01-06T06:15:51.754Z,3.10
2023-01-06T06:18:44.785Z,3.35
2023-01-06T06:21:31.242Z,3.22
2023-01-06T06:24:16.402Z,3.78
2023-01-06T06:27:01.913Z,2.88
2023-01-06T06:29:47.466Z,5.07
2023-01-06T06:32:33.175Z,4.60
2023-01-06T06:35:18.797Z,4.43
2023-01-06T06:38:04.304Z,5.13
2023-01-06T06:40:49.810Z,5.95
2023-01-06T06:43:35.191Z,5.43
2023-01-06T06:46:24.007Z,6.40
2023-01-06T06:49:09.669Z,6.05
2023-01-06T06:51:55.636Z,6.50
2023-01-06T06:54:40.788Z,9.05
2023-01-06T06:57:29.108Z,9.55
2023-01-06T07:00:14.887Z,8.80
2023-01-06T07:03:00.229Z,7.38
2023-01-06T07:05:47.625Z,5.82
2023-01-06T07:08:35.586Z,6.20
2023-01-06T07:11:21.589Z,6.30
2023-01-06T07:14:06.879Z,8.02
2023-01-06T07:16:52.388Z,7.60
2023-01-06T07:19:37.929Z,7.70
2023-01-06T07:22:23.290Z,8.20
2023-01-06T07:25:09.987Z,6.05
2023-01-06T07:28:00.511Z,5.95
2023-01-06T07:30:45.747Z,4.25
2023-01-06T07:33:36.681Z,3.60
2023-01-06T07:36:22.146Z,4.05
2023-01-06T07:39:07.839Z,3.05
2023-01-06T07:41:55.936Z,3.20
2023-01-06T07:44:41.453Z,3.10
2023-01-06T07:47:26.822Z,3.03
2023-01-06T07:50:12.366Z,3.95
2023-01-06T07:52:59.285Z,4.57
2023-01-06T07:55:53.763Z,4.32
2023-01-06T07:58:40.207Z,4.70
2023-01-06T08:01:27.214Z,4.13
2023-01-06T08:04:12.541Z,4.00
2023-01-06T08:06:59.158Z,4.30
2023-01-06T08:09:47.853Z,3.83
2023-01-06T08:12:33.207Z,5.13
2023-01-06T08:15:18.689Z,5.80
2023-01-06T08:18:04.100Z,4.30
2023-01-06T08:20:54.841Z,4.50
2023-01-06T08:23:40.524Z,5.60
2023-01-06T08:26:26.063Z,5.03
2023-01-06T08:29:11.425Z,5.78
2023-01-06T08:32:10.004Z,4.72
2023-01-06T08:34:56.244Z,4.88
2023-01-06T08:37:41.879Z,4.90
2023-01-06T08:40:31.256Z,5.53
2023-01-06T08:43:16.671Z,4.28
2023-01-06T08:46:04.508Z,4.30
2023-01-06T08:48:49.734Z,4.47
2023-01-06T08:51:35.738Z,4.70
2023-01-06T08:54:24.395Z,4.55
2023-01-06T08:57:13.161Z,4.03
2023-01-06T08:59:58.584Z,4.43
2023-01-06T09:02:43.778Z,4.28
2023-01-06T09:05:29.912Z,4.63
2023-01-06T09:08:15.145Z,3.72
2023-01-06T09:11:06.420Z,3.22
2023-01-06T09:14:01.064Z,3.33
2023-01-06T09:16:48.737Z,4.57
2023-01-06T09:19:34.442Z,3.90
2023-01-06T09:22:20.810Z,3.22
2023-01-06T09:25:07.387Z,3.33
2023-01-06T09:27:58.487Z,4.03
2023-01-06T09:30:46.530Z,3.25
2023-01-06T09:33:31.716Z,2.80
2023-01-06T09:36:17.326Z,3.67
2023-01-06T09:39:02.888Z,2.67
2023-01-06T09:42:05.736Z,3.90
2023-01-06T09:45:21.041Z,3.15
2023-01-06T09:48:11.625Z,3.00
2023-01-06T09:51:02.443Z,2.83
2023-01-06T09:53:54.197Z,3.00
2023-01-06T09:56:43.787Z,2.53
2023-01-06T09:59:38.913Z,2.58
2023-01-06T10:05:17.369Z,2.30
2023-01-06T10:08:30.720Z,2.20
2023-01-06T10:11:45.548Z,2.08
2023-01-06T10:14:40.687Z,2.85
2023-01-06T10:17:41.236Z,2.22
2023-01-06T10:21:02.410Z,2.33
2023-01-06T10:24:32.570Z,1.80
2023-01-06T10:27:34.600Z,2.05
2023-01-06T10:30:34.014Z,2.13
2023-01-06T10:33:32.533Z,1.52
2023-01-06T10:36:29.137Z,2.33
2023-01-06T10:39:21.306Z,2.70
2023-01-06T10:42:25.333Z,2.20
2023-01-06T10:45:14.081Z,2.15
2023-01-06T10:48:01.737Z,2.53
2023-01-06T10:50:51.409Z,2.45
2023-01-06T10:53:37.814Z,2.17
2023-01-06T10:56:24.411Z,2.90
2023-01-06T10:59:16.621Z,1.88
2023-01-06T11:02:02.547Z,1.85
2023-01-06T11:04:52.422Z,1.88
2023-01-06T11:07:40.383Z,2.13
2023-01-06T11:10:35.761Z,2.13
2023-01-06T11:13:36.602Z,2.80
2023-01-06T11:16:30.914Z,2.33
2023-01-06T11:19:45.863Z,2.97
2023-01-06T11:22:39.533Z,2.63
2023-01-06T11:25:32.370Z,2.35
2023-01-06T11:28:20.160Z,2.72
2023-01-06T11:31:20.492Z,2.20
2023-01-06T11:34:06.356Z,2.50
2023-01-06T11:36:53.015Z,2.35
2023-01-06T11:39:41.468Z,1.77
2023-01-06T11:42:27.955Z,2.08
2023-01-06T11:45:38.732Z,2.38
2023-01-06T11:48:34.516Z,1.90
2023-01-06T11:51:32.695Z,1.70
2023-01-06T11:54:37.028Z,2.35
2023-01-06T11:57:50.292Z,2.05
2023-01-06T12:01:12.101Z,2.38
2023-01-06T12:04:31.265Z,2.15
2023-01-06T12:07:32.095Z,2.10
2023-01-06T12:10:22.736Z,1.98
2023-01-06T12:13:12.433Z,1.90
2023-01-06T12:16:07.271Z,1.95
2023-01-06T12:18:53.785Z,2.10
2023-01-06T12:21:43.097Z,1.95
2023-01-06T12:24:32.276Z,1.85
2023-01-06T12:27:30.418Z,1.83
2023-01-06T12:30:30.736Z,1.55
2023-01-06T12:33:34.797Z,2.45
2023-01-06T12:36:40.616Z,1.70
2023-01-06T12:39:42.943Z,1.92
2023-01-06T12:42:53.291Z,1.70
2023-01-06T12:45:49.838Z,1.67
2023-01-06T12:48:44.689Z,1.80
2023-01-06T12:51:45.772Z,1.73
2023-01-06T12:54:33.486Z,1.75
2023-01-06T12:57:42.694Z,1.70
2023-01-06T13:00:50.770Z,1.98
2023-01-06T13:04:18.961Z,1.67
2023-01-06T13:07:32.215Z,2.08
2023-01-06T13:10:53.439Z,2.05
2023-01-06T13:14:12.208Z,1.70
2023-01-06T13:17:22.467Z,2.20
2023-01-06T13:20:28.201Z,1.75
2023-01-06T13:23:19.680Z,1.90
2023-01-06T13:26:20.141Z,1.63
2023-01-06T13:29:24.179Z,1.60
2023-01-06T13:32:21.764Z,1.40
2023-01-06T13:35:41.519Z,1.65
2023-01-06T13:38:48.084Z,1.63
2023-01-06T13:41:36.993Z,2.65
2023-01-06T13:44:25.695Z,1.75
2023-01-06T13:47:18.492Z,1.70
2023-01-06T13:50:08.020Z,1.98
2023-01-06T13:52:54.525Z,2.03
2023-01-06T13:55:40.528Z,1.45
2023-01-06T13:58:32.799Z,2.50
2023-01-06T14:01:21.096Z,2.22
2023-01-06T14:04:42.683Z,1.80
2023-01-06T14:07:40.457Z,2.00
2023-01-06T14:10:43.057Z,1.67
2023-01-06T14:13:36.767Z,1.65
2023-01-06T14:16:40.499Z,1.23
2023-01-06T14:19:32.807Z,1.38
2023-01-06T14:22:25.443Z,1.80
2023-01-06T14:25:22.447Z,1.10
2023-01-06T14:28:23.249Z,1.15
2023-01-06T14:31:26.779Z,1.23
2023-01-06T14:34:15.390Z,1.23
2023-01-06T14:37:02.339Z,1.25
2023-01-06T14:39:54.161Z,2.00
2023-01-06T14:42:43.876Z,1.80
2023-01-06T14:45:39.650Z,1.60
2023-01-06T14:48:33.197Z,1.33
2023-01-06T14:51:21.056Z,1.40
2023-01-06T14:54:36.677Z,1.50
2023-01-06T14:57:36.583Z,1.70
2023-01-06T15:00:29.784Z,2.15
2023-01-06T15:03:24.568Z,1.88
2023-01-06T15:06:17.436Z,1.45
2023-01-06T15:09:19.383Z,1.83
2023-01-06T15:12:28.144Z,2.50
2023-01-06T15:15:28.713Z,1.90
2023-01-06T15:18:15.828Z,3.47
2023-01-06T15:21:02.857Z,3.05
2023-01-06T15:23:51.641Z,3.55
2023-01-06T15:26:38.211Z,3.08
2023-01-06T15:29:25.539Z,3.05
2023-01-06T15:32:13.261Z,2.88
2023-01-06T15:35:01.028Z,3.08
2023-01-06T15:37:48.028Z,3.58
2023-01-06T15:40:39.286Z,3.80
2023-01-06T15:43:27.530Z,4.05
2023-01-06T15:46:13.279Z,4.05
2023-01-06T15:48:59.017Z,4.20
2023-01-06T15:52:11.568Z,4.32
2023-01-06T15:54:59.920Z,4.30
2023-01-06T15:57:53.461Z,4.88
2023-01-06T16:00:48.131Z,4.85
2023-01-06T16:03:35.766Z,5.63
2023-01-06T16:06:48.077Z,5.57
2023-01-06T16:09:37.952Z,5.20
2023-01-06T16:12:23.169Z,4.95
2023-01-06T16:15:34.026Z,5.82
2023-01-06T16:18:28.637Z,5.10
2023-01-06T16:21:19.700Z,5.18
2023-01-06T16:24:06.352Z,5.57
2023-01-06T16:27:06.343Z,5.95
2023-01-06T16:30:20.912Z,5.50
2023-01-06T16:33:39.564Z,4.57
2023-01-06T16:36:25.313Z,5.38
2023-01-06T16:39:12.920Z,4.35
2023-01-06T16:42:01.338Z,5.32
2023-01-06T16:45:09.488Z,4.63
2023-01-06T16:47:58.955Z,6.75
2023-01-06T16:50:53.142Z,5.22
2023-01-06T16:53:39.917Z,5.20
2023-01-06T16:56:28.863Z,6.45
2023-01-06T16:59:18.797Z,4.82
2023-01-06T17:02:33.940Z,4.70
2023-01-06T17:05:25.660Z,4.40
2023-01-06T17:08:16.203Z,4.57
2023-01-06T17:11:06.936Z,5.55
2023-01-06T17:14:04.704Z,3.88
2023-01-06T17:16:50.748Z,4.47
2023-01-06T17:19:36.834Z,5.43
2023-01-06T17:22:27.958Z,4.95
2023-01-06T17:25:14.093Z,5.80
2023-01-06T17:28:00.098Z,6.15
2023-01-06T17:30:46.508Z,7.22
2023-01-06T17:33:31.774Z,6.15
2023-01-06T17:36:35.341Z,4.40
2023-01-06T17:39:28.169Z,5.45
2023-01-06T17:42:13.696Z,5.22
2023-01-06T17:45:00.454Z,6.03
2023-01-06T17:47:50.077Z,4.80
2023-01-06T17:50:36.082Z,5.75
2023-01-06T17:53:55.732Z,6.60
2023-01-06T17:56:41.053Z,7.28
2023-01-06T17:59:29.704Z,7.65
2023-01-06T18:03:03.643Z,8.32
2023-01-06T18:06:00.840Z,7.90
2023-01-06T18:08:48.500Z,9.13
2023-01-06T18:11:56.110Z,9.40
2023-01-06T18:14:45.577Z,8.95
2023-01-06T18:17:34.132Z,10.75
2023-01-06T18:20:22.725Z,11.82
2023-01-06T18:23:18.425Z,11.88
2023-01-06T18:26:27.316Z,13.18
2023-01-06T18:29:19.312Z,11.88
2023-01-06T18:32:31.614Z,13.77
2023-01-06T18:35:19.363Z,13.38
2023-01-06T18:38:08.001Z,13.10
2023-01-06T18:40:54.668Z,14.00
2023-01-06T18:43:41.772Z,16.38
2023-01-06T18:46:27.450Z,15.88
2023-01-06T18:49:15.936Z,16.30
2023-01-06T18:52:24.771Z,17.77
2023-01-06T18:55:18.156Z,19.05
2023-01-06T18:58:12.375Z,21.42
2023-01-06T19:01:01.387Z,21.70
2023-01-06T19:03:59.858Z,24.58
2023-01-06T19:06:57.975Z,25.92
2023-01-06T19:09:45.685Z,26.15
2023-01-06T19:12:39.248Z,27.85
2023-01-06T19:15:26.787Z,27.58
2023-01-06T19:18:16.005Z,26.00
2023-01-06T19:21:22.601Z,25.05
2023-01-06T19:24:28.638Z,24.67
2023-01-06T19:27:42.179Z,20.42
2023-01-06T19:30:43.529Z,21.10
2023-01-06T19:34:02.572Z,19.75
2023-01-06T19:36:53.197Z,17.17
2023-01-06T19:39:47.816Z,15.52
2023-01-06T19:42:33.355Z,16.08
2023-01-06T19:45:30.408Z,16.13
2023-01-06T19:48:28.132Z,15.90
2023-01-06T19:51:34.032Z,16.50
2023-01-06T19:54:25.045Z,14.07
2023-01-06T19:57:28.260Z,13.93
2023-01-06T20:00:26.728Z,16.15
2023-01-06T20:03:30.585Z,16.48
2023-01-06T20:06:17.892Z,15.48
2023-01-06T20:09:03.717Z,16.30
2023-01-06T20:11:50.797Z,17.58
2023-01-06T20:14:36.385Z,16.33
2023-01-06T20:17:21.756Z,17.27
2023-01-06T20:20:08.539Z,16.55
2023-01-06T20:22:53.808Z,16.63
2023-01-06T20:25:39.245Z,16.20
2023-01-06T20:28:24.892Z,16.52
2023-01-06T20:31:10.528Z,17.23
2023-01-06T20:33:55.840Z,17.98
2023-01-06T20:36:41.362Z,19.00
2023-01-06T20:39:29.681Z,18.48
2023-01-06T20:42:15.869Z,19.63
2023-01-06T20:45:01.612Z,21.88
2023-01-06T20:47:50.491Z,20.13
2023-01-06T20:50:36.236Z,19.33
2023-01-06T20:53:21.760Z,19.25
2023-01-06T20:56:08.361Z,18.30
2023-01-06T20:59:19.474Z,17.35
2023-01-06T21:02:06.246Z,16.92
2023-01-06T21:04:51.663Z,15.75
2023-01-06T21:07:37.366Z,16.55
2023-01-06T21:10:22.857Z,16.52
2023-01-06T21:13:08.566Z,16.25
2023-01-06T21:15:56.517Z,17.85
2023-01-06T21:18:45.027Z,17.55
2023-01-06T21:21:33.388Z,19.52
2023-01-06T21:24:18.904Z,17.70
2023-01-06T21:27:07.385Z,20.33
2023-01-06T21:29:53.103Z,16.52
2023-01-06T21:32:39.831Z,17.45
2023-01-06T21:35:29.494Z,17.98
2023-01-06T21:38:15.026Z,17.08
2023-01-06T21:41:23.471Z,16.60
2023-01-06T21:44:09.493Z,13.40
2023-01-06T21:46:56.222Z,12.68
2023-01-06T21:49:45.505Z,12.88
2023-01-06T21:52:33.591Z,15.00
2023-01-06T21:55:19.143Z,12.68
2023-01-06T21:58:04.464Z,14.85
2023-01-06T22:00:49.885Z,14.93
2023-01-06T22:03:35.404Z,15.45
2023-01-06T22:06:21.857Z,16.15
2023-01-06T22:09:08.966Z,14.38
2023-01-06T22:12:00.330Z,16.05
2023-01-06T22:14:48.560Z,15.45
2023-01-06T22:17:34.765Z,13.00
2023-01-06T22:20:20.436Z,12.77
2023-01-06T22:23:10.171Z,12.27
2023-01-06T22:25:55.387Z,12.13
2023-01-06T22:28:46.205Z,11.75
2023-01-06T22:31:31.637Z,10.20
2023-01-06T22:34:17.468Z,11.30
2023-01-06T22:37:03.122Z,10.40
2023-01-06T22:39:49.350Z,10.23
2023-01-06T22:42:34.966Z,11.25
2023-01-06T22:45:23.100Z,10.40
2023-01-06T22:48:08.240Z,10.13
2023-01-06T22:51:02.164Z,11.27
2023-01-06T22:53:47.586Z,12.18
2023-01-06T22:56:33.491Z,11.40
2023-01-06T22:59:18.824Z,13.27
2023-01-06T23:02:04.387Z,12.75
2023-01-06T23:04:51.896Z,13.38
2023-01-06T23:07:39.150Z,12.95
2023-01-06T23:10:24.657Z,12.75
2023-01-06T23:13:13.391Z,13.32
2023-01-06T23:16:26.376Z,13.77
2023-01-06T23:19:16.768Z,13.65
2023-01-06T23:22:02.231Z,12.65
2023-01-06T23:24:47.743Z,12.38
2023-01-06T23:27:33.408Z,12.23
2023-01-06T23:30:18.634Z,11.75
2023-01-06T23:33:04.103Z,11.13
2023-01-06T23:35:49.509Z,11.60
2023-01-06T23:38:35.650Z,12.23
2023-01-06T23:41:24.553Z,13.00
2023-01-06T23:44:18.357Z,12.85
2023-01-06T23:47:03.986Z,13.02
2023-01-06T23:49:49.403Z,13.38
2023-01-06T23:52:34.909Z,12.48
2023-01-06T23:55:20.606Z,11.75
2023-01-06T23:58:05.977Z,10.77
